sensor_id;sensor_type;location;lat;lon;timestamp;temperature;humidity
67555;HTU21D;54385;53.516;49.456;2022-11-09T00:00:46;3.60;74.32
67555;HTU21D;54385;53.516;49.456;2022-11-09T00:03:12;3.57;74.35
67555;HTU21D;54385;53.516;49.456;2022-11-09T00:05:39;3.54;74.43
67555;HTU21D;54385;53.516;49.456;2022-11-09T00:08:05;3.61;74.57
67555;HTU21D;54385;53.516;49.456;2022-11-09T00:10:33;3.64;74.27
67555;HTU21D;54385;53.516;49.456;2022-11-09T00:13:00;3.62;74.22
67555;HTU21D;54385;53.516;49.456;2022-11-09T00:15:27;3.58;74.54
67555;HTU21D;54385;53.516;49.456;2022-11-09T00:17:53;3.58;74.61
67555;HTU21D;54385;53.516;49.456;2022-11-09T00:20:20;3.57;74.77
67555;HTU21D;54385;53.516;49.456;2022-11-09T00:22:48;3.58;74.65
67555;HTU21D;54385;53.516;49.456;2022-11-09T00:25:15;3.53;74.83
67555;HTU21D;54385;53.516;49.456;2022-11-09T00:27:41;3.57;74.78
67555;HTU21D;54385;53.516;49.456;2022-11-09T00:30:08;3.67;74.50
67555;HTU21D;54385;53.516;49.456;2022-11-09T00:32:35;3.65;74.49
67555;HTU21D;54385;53.516;49.456;2022-11-09T00:35:02;3.65;74.41
67555;HTU21D;54385;53.516;49.456;2022-11-09T00:37:29;3.64;74.39
67555;HTU21D;54385;53.516;49.456;2022-11-09T00:39:55;3.72;74.23
67555;HTU21D;54385;53.516;49.456;2022-11-09T00:42:22;3.75;73.82
67555;HTU21D;54385;53.516;49.456;2022-11-09T00:44:48;3.72;73.93
67555;HTU21D;54385;53.516;49.456;2022-11-09T00:47:15;3.80;73.39
67555;HTU21D;54385;53.516;49.456;2022-11-09T00:49:41;3.76;73.48
67555;HTU21D;54385;53.516;49.456;2022-11-09T00:52:07;3.74;73.27
67555;HTU21D;54385;53.516;49.456;2022-11-09T00:54:34;3.75;73.38
67555;HTU21D;54385;53.516;49.456;2022-11-09T00:57:00;3.70;73.32
67555;HTU21D;54385;53.516;49.456;2022-11-09T00:59:26;3.63;73.38
67555;HTU21D;54385;53.516;49.456;2022-11-09T01:01:53;3.61;73.56
67555;HTU21D;54385;53.516;49.456;2022-11-09T01:04:19;3.68;73.37
67555;HTU21D;54385;53.516;49.456;2022-11-09T01:06:46;3.73;73.19
67555;HTU21D;54385;53.516;49.456;2022-11-09T01:09:12;3.70;73.12
67555;HTU21D;54385;53.516;49.456;2022-11-09T01:11:38;3.65;73.04
67555;HTU21D;54385;53.516;49.456;2022-11-09T01:14:05;3.70;73.03
67555;HTU21D;54385;53.516;49.456;2022-11-09T01:16:31;3.76;72.96
67555;HTU21D;54385;53.516;49.456;2022-11-09T01:18:58;3.76;72.77
67555;HTU21D;54385;53.516;49.456;2022-11-09T01:21:25;3.71;72.96
67555;HTU21D;54385;53.516;49.456;2022-11-09T01:23:52;3.74;72.98
67555;HTU21D;54385;53.516;49.456;2022-11-09T01:26:18;3.77;72.67
67555;HTU21D;54385;53.516;49.456;2022-11-09T01:28:45;3.79;72.65
67555;HTU21D;54385;53.516;49.456;2022-11-09T01:31:14;3.74;72.40
67555;HTU21D;54385;53.516;49.456;2022-11-09T01:33:42;3.65;72.83
67555;HTU21D;54385;53.516;49.456;2022-11-09T01:36:15;3.64;73.12
67555;HTU21D;54385;53.516;49.456;2022-11-09T01:38:41;3.61;73.14
67555;HTU21D;54385;53.516;49.456;2022-11-09T01:41:12;3.64;72.96
67555;HTU21D;54385;53.516;49.456;2022-11-09T01:43:39;3.74;72.79
67555;HTU21D;54385;53.516;49.456;2022-11-09T01:46:22;3.76;72.56
67555;HTU21D;54385;53.516;49.456;2022-11-09T01:48:54;3.77;72.48
67555;HTU21D;54385;53.516;49.456;2022-11-09T01:51:39;3.72;72.46
67555;HTU21D;54385;53.516;49.456;2022-11-09T01:54:17;3.68;72.35
67555;HTU21D;54385;53.516;49.456;2022-11-09T01:56:45;3.56;72.87
67555;HTU21D;54385;53.516;49.456;2022-11-09T01:59:18;3.59;72.90
67555;HTU21D;54385;53.516;49.456;2022-11-09T02:01:48;3.64;72.59
67555;HTU21D;54385;53.516;49.456;2022-11-09T02:04:21;3.61;72.80
67555;HTU21D;54385;53.516;49.456;2022-11-09T02:06:48;3.65;72.66
67555;HTU21D;54385;53.516;49.456;2022-11-09T02:09:29;3.61;72.92
67555;HTU21D;54385;53.516;49.456;2022-11-09T02:11:57;3.61;72.85
67555;HTU21D;54385;53.516;49.456;2022-11-09T02:14:25;3.60;73.25
67555;HTU21D;54385;53.516;49.456;2022-11-09T02:16:51;3.58;73.35
67555;HTU21D;54385;53.516;49.456;2022-11-09T02:19:18;3.62;73.78
67555;HTU21D;54385;53.516;49.456;2022-11-09T02:21:44;3.62;73.92
67555;HTU21D;54385;53.516;49.456;2022-11-09T02:24:10;3.63;74.05
67555;HTU21D;54385;53.516;49.456;2022-11-09T02:27:06;3.52;74.38
67555;HTU21D;54385;53.516;49.456;2022-11-09T02:29:39;3.49;75.08
67555;HTU21D;54385;53.516;49.456;2022-11-09T02:32:11;3.44;74.50
67555;HTU21D;54385;53.516;49.456;2022-11-09T02:34:38;3.40;74.84
67555;HTU21D;54385;53.516;49.456;2022-11-09T02:37:05;3.44;74.79
67555;HTU21D;54385;53.516;49.456;2022-11-09T02:39:32;3.46;74.46
67555;HTU21D;54385;53.516;49.456;2022-11-09T02:42:07;3.45;73.97
67555;HTU21D;54385;53.516;49.456;2022-11-09T02:44:40;3.52;74.45
67555;HTU21D;54385;53.516;49.456;2022-11-09T02:47:06;3.49;74.33
67555;HTU21D;54385;53.516;49.456;2022-11-09T02:49:33;3.43;74.14
67555;HTU21D;54385;53.516;49.456;2022-11-09T02:51:59;3.41;74.47
67555;HTU21D;54385;53.516;49.456;2022-11-09T02:54:26;3.38;74.64
67555;HTU21D;54385;53.516;49.456;2022-11-09T02:56:52;3.36;74.82
67555;HTU21D;54385;53.516;49.456;2022-11-09T02:59:18;3.35;74.93
67555;HTU21D;54385;53.516;49.456;2022-11-09T03:01:45;3.39;75.18
67555;HTU21D;54385;53.516;49.456;2022-11-09T03:04:11;3.38;75.22
67555;HTU21D;54385;53.516;49.456;2022-11-09T03:06:38;3.31;75.31
67555;HTU21D;54385;53.516;49.456;2022-11-09T03:09:06;3.32;75.22
67555;HTU21D;54385;53.516;49.456;2022-11-09T03:11:35;3.33;74.35
67555;HTU21D;54385;53.516;49.456;2022-11-09T03:14:02;3.28;74.32
67555;HTU21D;54385;53.516;49.456;2022-11-09T03:16:29;3.27;74.27
67555;HTU21D;54385;53.516;49.456;2022-11-09T03:18:55;3.27;73.94
67555;HTU21D;54385;53.516;49.456;2022-11-09T03:21:23;3.28;73.87
67555;HTU21D;54385;53.516;49.456;2022-11-09T03:23:50;3.28;73.92
67555;HTU21D;54385;53.516;49.456;2022-11-09T03:26:16;3.30;73.58
67555;HTU21D;54385;53.516;49.456;2022-11-09T03:28:43;3.32;73.73
67555;HTU21D;54385;53.516;49.456;2022-11-09T03:31:09;3.30;74.72
67555;HTU21D;54385;53.516;49.456;2022-11-09T03:33:35;3.30;73.61
67555;HTU21D;54385;53.516;49.456;2022-11-09T03:36:02;3.33;73.26
67555;HTU21D;54385;53.516;49.456;2022-11-09T03:38:28;3.33;73.44
67555;HTU21D;54385;53.516;49.456;2022-11-09T03:40:55;3.28;74.15
67555;HTU21D;54385;53.516;49.456;2022-11-09T03:43:23;3.30;74.16
67555;HTU21D;54385;53.516;49.456;2022-11-09T03:45:50;3.29;74.11
67555;HTU21D;54385;53.516;49.456;2022-11-09T03:48:19;3.26;73.83
67555;HTU21D;54385;53.516;49.456;2022-11-09T03:50:46;3.28;73.42
67555;HTU21D;54385;53.516;49.456;2022-11-09T03:53:12;3.29;73.81
67555;HTU21D;54385;53.516;49.456;2022-11-09T03:55:39;3.18;74.12
67555;HTU21D;54385;53.516;49.456;2022-11-09T03:58:08;3.09;75.26
67555;HTU21D;54385;53.516;49.456;2022-11-09T04:00:35;2.99;76.11
67555;HTU21D;54385;53.516;49.456;2022-11-09T04:03:02;2.87;76.41
67555;HTU21D;54385;53.516;49.456;2022-11-09T04:05:28;2.85;76.41
67555;HTU21D;54385;53.516;49.456;2022-11-09T04:07:56;2.84;77.37
67555;HTU21D;54385;53.516;49.456;2022-11-09T04:10:24;2.81;77.02
67555;HTU21D;54385;53.516;49.456;2022-11-09T04:12:51;2.84;77.26
67555;HTU21D;54385;53.516;49.456;2022-11-09T04:15:17;2.85;77.02
67555;HTU21D;54385;53.516;49.456;2022-11-09T04:17:44;2.91;77.01
67555;HTU21D;54385;53.516;49.456;2022-11-09T04:20:19;2.95;76.70
67555;HTU21D;54385;53.516;49.456;2022-11-09T04:22:55;2.95;76.98
67555;HTU21D;54385;53.516;49.456;2022-11-09T04:25:23;2.98;76.57
67555;HTU21D;54385;53.516;49.456;2022-11-09T04:27:57;3.00;77.05
67555;HTU21D;54385;53.516;49.456;2022-11-09T04:30:25;2.93;76.44
67555;HTU21D;54385;53.516;49.456;2022-11-09T04:32:56;2.95;76.60
67555;HTU21D;54385;53.516;49.456;2022-11-09T04:35:23;2.89;75.59
67555;HTU21D;54385;53.516;49.456;2022-11-09T04:37:58;2.89;75.67
67555;HTU21D;54385;53.516;49.456;2022-11-09T04:40:26;2.89;76.15
67555;HTU21D;54385;53.516;49.456;2022-11-09T04:42:53;2.88;76.60
67555;HTU21D;54385;53.516;49.456;2022-11-09T04:45:20;2.91;76.32
67555;HTU21D;54385;53.516;49.456;2022-11-09T04:47:47;2.93;75.18
67555;HTU21D;54385;53.516;49.456;2022-11-09T04:50:14;3.04;75.21
67555;HTU21D;54385;53.516;49.456;2022-11-09T04:52:41;3.09;74.37
67555;HTU21D;54385;53.516;49.456;2022-11-09T04:55:07;3.04;74.40
67555;HTU21D;54385;53.516;49.456;2022-11-09T04:57:34;3.03;75.06
67555;HTU21D;54385;53.516;49.456;2022-11-09T05:00:00;3.10;74.60
67555;HTU21D;54385;53.516;49.456;2022-11-09T05:02:27;3.08;74.18
67555;HTU21D;54385;53.516;49.456;2022-11-09T05:04:53;3.05;74.87
67555;HTU21D;54385;53.516;49.456;2022-11-09T05:07:20;3.06;74.67
67555;HTU21D;54385;53.516;49.456;2022-11-09T05:09:46;3.08;74.25
67555;HTU21D;54385;53.516;49.456;2022-11-09T05:12:12;3.12;74.47
67555;HTU21D;54385;53.516;49.456;2022-11-09T05:14:39;3.14;74.31
67555;HTU21D;54385;53.516;49.456;2022-11-09T05:17:05;3.20;73.81
67555;HTU21D;54385;53.516;49.456;2022-11-09T05:19:34;3.19;74.09
67555;HTU21D;54385;53.516;49.456;2022-11-09T05:22:00;3.26;73.50
67555;HTU21D;54385;53.516;49.456;2022-11-09T05:24:46;3.24;73.81
67555;HTU21D;54385;53.516;49.456;2022-11-09T05:27:12;3.20;73.63
67555;HTU21D;54385;53.516;49.456;2022-11-09T05:29:41;3.19;74.06
67555;HTU21D;54385;53.516;49.456;2022-11-09T05:32:08;3.35;73.47
67555;HTU21D;54385;53.516;49.456;2022-11-09T05:34:34;3.43;73.60
67555;HTU21D;54385;53.516;49.456;2022-11-09T05:37:01;3.42;73.24
67555;HTU21D;54385;53.516;49.456;2022-11-09T05:39:27;3.43;73.25
67555;HTU21D;54385;53.516;49.456;2022-11-09T05:41:53;3.47;72.95
67555;HTU21D;54385;53.516;49.456;2022-11-09T05:44:20;3.43;73.21
67555;HTU21D;54385;53.516;49.456;2022-11-09T05:46:46;3.46;73.12
67555;HTU21D;54385;53.516;49.456;2022-11-09T05:49:13;3.53;72.67
67555;HTU21D;54385;53.516;49.456;2022-11-09T05:51:40;3.54;73.00
67555;HTU21D;54385;53.516;49.456;2022-11-09T05:54:07;3.57;72.67
67555;HTU21D;54385;53.516;49.456;2022-11-09T05:56:34;3.64;72.39
67555;HTU21D;54385;53.516;49.456;2022-11-09T05:59:00;3.71;72.48
67555;HTU21D;54385;53.516;49.456;2022-11-09T06:01:27;3.77;72.62
67555;HTU21D;54385;53.516;49.456;2022-11-09T06:03:53;3.88;71.71
67555;HTU21D;54385;53.516;49.456;2022-11-09T06:06:20;4.05;70.75
67555;HTU21D;54385;53.516;49.456;2022-11-09T06:08:46;4.08;70.90
67555;HTU21D;54385;53.516;49.456;2022-11-09T06:11:13;4.18;71.20
67555;HTU21D;54385;53.516;49.456;2022-11-09T06:13:39;4.13;70.45
67555;HTU21D;54385;53.516;49.456;2022-11-09T06:16:07;4.10;70.84
67555;HTU21D;54385;53.516;49.456;2022-11-09T06:18:35;4.18;70.88
67555;HTU21D;54385;53.516;49.456;2022-11-09T06:21:06;4.19;70.45
67555;HTU21D;54385;53.516;49.456;2022-11-09T06:23:32;4.27;70.30
67555;HTU21D;54385;53.516;49.456;2022-11-09T06:26:01;4.38;70.10
67555;HTU21D;54385;53.516;49.456;2022-11-09T06:28:28;4.58;69.11
67555;HTU21D;54385;53.516;49.456;2022-11-09T06:30:59;4.59;69.05
67555;HTU21D;54385;53.516;49.456;2022-11-09T06:33:28;4.65;68.97
67555;HTU21D;54385;53.516;49.456;2022-11-09T06:35:56;4.71;68.33
67555;HTU21D;54385;53.516;49.456;2022-11-09T06:38:23;4.56;68.14
67555;HTU21D;54385;53.516;49.456;2022-11-09T06:40:57;4.50;69.81
67555;HTU21D;54385;53.516;49.456;2022-11-09T06:43:24;4.54;69.02
67555;HTU21D;54385;53.516;49.456;2022-11-09T06:45:51;4.60;69.22
67555;HTU21D;54385;53.516;49.456;2022-11-09T06:48:23;4.60;68.97
67555;HTU21D;54385;53.516;49.456;2022-11-09T06:50:50;4.74;69.10
67555;HTU21D;54385;53.516;49.456;2022-11-09T06:53:17;4.77;68.76
67555;HTU21D;54385;53.516;49.456;2022-11-09T06:55:43;4.76;68.85
67555;HTU21D;54385;53.516;49.456;2022-11-09T06:58:12;4.79;68.39
67555;HTU21D;54385;53.516;49.456;2022-11-09T07:00:43;4.80;68.89
67555;HTU21D;54385;53.516;49.456;2022-11-09T07:03:14;4.87;68.76
67555;HTU21D;54385;53.516;49.456;2022-11-09T07:05:41;4.84;68.81
67555;HTU21D;54385;53.516;49.456;2022-11-09T07:08:08;4.91;68.36
67555;HTU21D;54385;53.516;49.456;2022-11-09T07:10:35;5.04;68.14
67555;HTU21D;54385;53.516;49.456;2022-11-09T07:13:01;5.16;68.20
67555;HTU21D;54385;53.516;49.456;2022-11-09T07:15:28;5.13;67.82
67555;HTU21D;54385;53.516;49.456;2022-11-09T07:17:57;5.17;68.17
67555;HTU21D;54385;53.516;49.456;2022-11-09T07:20:24;5.19;67.76
67555;HTU21D;54385;53.516;49.456;2022-11-09T07:22:50;5.08;67.80
67555;HTU21D;54385;53.516;49.456;2022-11-09T07:25:17;4.94;68.38
67555;HTU21D;54385;53.516;49.456;2022-11-09T07:27:44;4.82;68.65
67555;HTU21D;54385;53.516;49.456;2022-11-09T07:30:11;4.77;68.82
67555;HTU21D;54385;53.516;49.456;2022-11-09T07:32:39;4.75;69.26
67555;HTU21D;54385;53.516;49.456;2022-11-09T07:35:08;4.74;69.39
67555;HTU21D;54385;53.516;49.456;2022-11-09T07:37:35;4.83;69.41
67555;HTU21D;54385;53.516;49.456;2022-11-09T07:40:02;4.84;68.99
67555;HTU21D;54385;53.516;49.456;2022-11-09T07:42:29;4.96;68.62
67555;HTU21D;54385;53.516;49.456;2022-11-09T07:44:56;4.86;69.20
67555;HTU21D;54385;53.516;49.456;2022-11-09T07:47:22;4.98;70.72
67555;HTU21D;54385;53.516;49.456;2022-11-09T07:49:49;4.83;70.48
67555;HTU21D;54385;53.516;49.456;2022-11-09T07:52:17;4.88;71.03
67555;HTU21D;54385;53.516;49.456;2022-11-09T07:54:43;4.81;71.27
67555;HTU21D;54385;53.516;49.456;2022-11-09T07:57:10;4.77;72.18
67555;HTU21D;54385;53.516;49.456;2022-11-09T07:59:36;4.68;71.64
67555;HTU21D;54385;53.516;49.456;2022-11-09T08:02:02;4.59;72.50
67555;HTU21D;54385;53.516;49.456;2022-11-09T08:04:33;4.50;72.92
67555;HTU21D;54385;53.516;49.456;2022-11-09T08:07:00;4.38;72.97
67555;HTU21D;54385;53.516;49.456;2022-11-09T08:09:27;4.31;74.16
67555;HTU21D;54385;53.516;49.456;2022-11-09T08:11:53;4.21;74.70
67555;HTU21D;54385;53.516;49.456;2022-11-09T08:14:20;4.04;75.83
67555;HTU21D;54385;53.516;49.456;2022-11-09T08:16:46;4.05;75.83
67555;HTU21D;54385;53.516;49.456;2022-11-09T08:19:13;4.14;76.65
67555;HTU21D;54385;53.516;49.456;2022-11-09T08:21:39;4.26;76.75
67555;HTU21D;54385;53.516;49.456;2022-11-09T08:24:09;4.30;76.92
67555;HTU21D;54385;53.516;49.456;2022-11-09T08:26:35;4.29;76.57
67555;HTU21D;54385;53.516;49.456;2022-11-09T08:29:02;4.30;76.81
67555;HTU21D;54385;53.516;49.456;2022-11-09T08:31:28;4.33;78.12
67555;HTU21D;54385;53.516;49.456;2022-11-09T08:33:55;4.18;76.39
67555;HTU21D;54385;53.516;49.456;2022-11-09T08:36:22;4.18;77.75
67555;HTU21D;54385;53.516;49.456;2022-11-09T08:38:50;4.22;78.69
67555;HTU21D;54385;53.516;49.456;2022-11-09T08:41:17;4.23;78.75
67555;HTU21D;54385;53.516;49.456;2022-11-09T08:43:46;4.28;79.00
67555;HTU21D;54385;53.516;49.456;2022-11-09T08:46:13;4.27;79.24
67555;HTU21D;54385;53.516;49.456;2022-11-09T08:48:39;4.36;78.17
67555;HTU21D;54385;53.516;49.456;2022-11-09T08:51:06;4.41;78.27
67555;HTU21D;54385;53.516;49.456;2022-11-09T08:53:32;4.45;77.92
67555;HTU21D;54385;53.516;49.456;2022-11-09T08:55:58;4.43;77.63
67555;HTU21D;54385;53.516;49.456;2022-11-09T08:58:25;4.36;77.69
67555;HTU21D;54385;53.516;49.456;2022-11-09T09:00:51;4.33;77.97
67555;HTU21D;54385;53.516;49.456;2022-11-09T09:03:18;4.31;78.47
67555;HTU21D;54385;53.516;49.456;2022-11-09T09:05:44;4.35;80.02
67555;HTU21D;54385;53.516;49.456;2022-11-09T09:08:11;4.35;79.36
67555;HTU21D;54385;53.516;49.456;2022-11-09T09:10:41;4.32;80.32
67555;HTU21D;54385;53.516;49.456;2022-11-09T09:13:07;4.35;79.89
67555;HTU21D;54385;53.516;49.456;2022-11-09T09:15:34;4.35;78.89
67555;HTU21D;54385;53.516;49.456;2022-11-09T09:18:01;4.36;78.47
67555;HTU21D;54385;53.516;49.456;2022-11-09T09:20:27;4.37;79.43
67555;HTU21D;54385;53.516;49.456;2022-11-09T09:22:57;4.37;79.18
67555;HTU21D;54385;53.516;49.456;2022-11-09T09:25:24;4.41;79.37
67555;HTU21D;54385;53.516;49.456;2022-11-09T09:27:51;4.49;78.35
67555;HTU21D;54385;53.516;49.456;2022-11-09T09:30:17;4.48;78.21
67555;HTU21D;54385;53.516;49.456;2022-11-09T09:32:44;4.47;78.17
67555;HTU21D;54385;53.516;49.456;2022-11-09T09:35:10;4.44;78.66
67555;HTU21D;54385;53.516;49.456;2022-11-09T09:37:44;4.43;78.00
67555;HTU21D;54385;53.516;49.456;2022-11-09T09:40:24;4.39;78.54
67555;HTU21D;54385;53.516;49.456;2022-11-09T09:42:54;4.37;79.03
67555;HTU21D;54385;53.516;49.456;2022-11-09T09:45:25;4.33;78.59
67555;HTU21D;54385;53.516;49.456;2022-11-09T09:48:38;4.29;78.01
67555;HTU21D;54385;53.516;49.456;2022-11-09T09:51:28;4.28;79.35
67555;HTU21D;54385;53.516;49.456;2022-11-09T09:54:19;4.26;79.56
67555;HTU21D;54385;53.516;49.456;2022-11-09T09:56:48;4.29;78.56
67555;HTU21D;54385;53.516;49.456;2022-11-09T09:59:40;4.27;78.09
67555;HTU21D;54385;53.516;49.456;2022-11-09T10:02:24;4.29;78.86
67555;HTU21D;54385;53.516;49.456;2022-11-09T10:05:16;4.34;78.01
67555;HTU21D;54385;53.516;49.456;2022-11-09T10:13:44;4.43;77.69
67555;HTU21D;54385;53.516;49.456;2022-11-09T10:16:37;4.39;76.93
67555;HTU21D;54385;53.516;49.456;2022-11-09T10:19:30;4.51;77.69
67555;HTU21D;54385;53.516;49.456;2022-11-09T10:22:22;4.58;76.76
67555;HTU21D;54385;53.516;49.456;2022-11-09T10:24:56;4.61;76.29
67555;HTU21D;54385;53.516;49.456;2022-11-09T10:27:34;4.54;76.09
67555;HTU21D;54385;53.516;49.456;2022-11-09T10:30:12;4.54;76.16
67555;HTU21D;54385;53.516;49.456;2022-11-09T10:32:41;4.50;76.62
67555;HTU21D;54385;53.516;49.456;2022-11-09T10:38:34;4.49;75.88
67555;HTU21D;54385;53.516;49.456;2022-11-09T10:41:25;4.53;75.95
67555;HTU21D;54385;53.516;49.456;2022-11-09T10:43:57;4.63;76.72
67555;HTU21D;54385;53.516;49.456;2022-11-09T10:46:23;4.72;76.26
67555;HTU21D;54385;53.516;49.456;2022-11-09T10:48:51;4.72;76.79
67555;HTU21D;54385;53.516;49.456;2022-11-09T10:51:34;4.76;75.82
67555;HTU21D;54385;53.516;49.456;2022-11-09T10:54:17;4.77;75.42
67555;HTU21D;54385;53.516;49.456;2022-11-09T10:56:56;4.82;75.73
67555;HTU21D;54385;53.516;49.456;2022-11-09T11:01:53;4.82;75.04
67555;HTU21D;54385;53.516;49.456;2022-11-09T11:04:22;4.74;74.82
67555;HTU21D;54385;53.516;49.456;2022-11-09T11:06:49;4.82;74.75
67555;HTU21D;54385;53.516;49.456;2022-11-09T11:09:19;4.84;74.44
67555;HTU21D;54385;53.516;49.456;2022-11-09T11:11:46;4.81;74.90
67555;HTU21D;54385;53.516;49.456;2022-11-09T11:14:24;4.80;75.68
67555;HTU21D;54385;53.516;49.456;2022-11-09T11:16:52;4.79;75.11
67555;HTU21D;54385;53.516;49.456;2022-11-09T11:19:39;4.71;75.50
67555;HTU21D;54385;53.516;49.456;2022-11-09T11:22:16;4.72;75.28
67555;HTU21D;54385;53.516;49.456;2022-11-09T11:24:57;4.71;75.47
67555;HTU21D;54385;53.516;49.456;2022-11-09T11:27:39;4.69;75.59
67555;HTU21D;54385;53.516;49.456;2022-11-09T11:30:15;4.77;75.21
67555;HTU21D;54385;53.516;49.456;2022-11-09T11:32:43;4.75;75.14
67555;HTU21D;54385;53.516;49.456;2022-11-09T11:35:13;4.66;75.53
67555;HTU21D;54385;53.516;49.456;2022-11-09T11:37:53;4.71;75.50
67555;HTU21D;54385;53.516;49.456;2022-11-09T11:40:30;4.74;75.32
67555;HTU21D;54385;53.516;49.456;2022-11-09T11:48:20;4.65;75.86
67555;HTU21D;54385;53.516;49.456;2022-11-09T11:50:58;4.64;76.57
67555;HTU21D;54385;53.516;49.456;2022-11-09T11:59:02;4.74;75.95
67555;HTU21D;54385;53.516;49.456;2022-11-09T12:01:45;4.84;76.23
67555;HTU21D;54385;53.516;49.456;2022-11-09T12:04:41;4.90;75.70
67555;HTU21D;54385;53.516;49.456;2022-11-09T12:08:14;4.87;76.21
67555;HTU21D;54385;53.516;49.456;2022-11-09T12:15:52;4.73;76.70
67555;HTU21D;54385;53.516;49.456;2022-11-09T12:18:36;4.76;76.36
67555;HTU21D;54385;53.516;49.456;2022-11-09T12:21:16;4.73;76.31
67555;HTU21D;54385;53.516;49.456;2022-11-09T12:26:57;4.82;75.99
67555;HTU21D;54385;53.516;49.456;2022-11-09T12:29:43;4.89;75.92
67555;HTU21D;54385;53.516;49.456;2022-11-09T12:32:31;4.84;76.08
67555;HTU21D;54385;53.516;49.456;2022-11-09T12:41:08;4.82;75.89
67555;HTU21D;54385;53.516;49.456;2022-11-09T12:44:00;4.89;75.95
67555;HTU21D;54385;53.516;49.456;2022-11-09T12:46:33;4.84;75.91
67555;HTU21D;54385;53.516;49.456;2022-11-09T12:49:02;4.79;76.16
67555;HTU21D;54385;53.516;49.456;2022-11-09T12:51:30;4.77;76.51
67555;HTU21D;54385;53.516;49.456;2022-11-09T12:53:59;4.72;76.85
67555;HTU21D;54385;53.516;49.456;2022-11-09T12:56:34;4.74;76.73
67555;HTU21D;54385;53.516;49.456;2022-11-09T12:59:44;4.81;76.38
67555;HTU21D;54385;53.516;49.456;2022-11-09T13:02:24;4.76;76.44
67555;HTU21D;54385;53.516;49.456;2022-11-09T13:07:53;4.78;76.19
67555;HTU21D;54385;53.516;49.456;2022-11-09T13:10:32;4.77;76.57
67555;HTU21D;54385;53.516;49.456;2022-11-09T13:13:03;4.88;76.28
67555;HTU21D;54385;53.516;49.456;2022-11-09T13:15:31;4.88;76.40
67555;HTU21D;54385;53.516;49.456;2022-11-09T13:23:07;4.82;76.38
67555;HTU21D;54385;53.516;49.456;2022-11-09T13:25:50;4.82;76.32
67555;HTU21D;54385;53.516;49.456;2022-11-09T13:28:48;4.89;75.99
67555;HTU21D;54385;53.516;49.456;2022-11-09T13:32:21;4.89;76.13
67555;HTU21D;54385;53.516;49.456;2022-11-09T13:34:55;4.89;75.73
67555;HTU21D;54385;53.516;49.456;2022-11-09T13:45:49;4.89;75.86
67555;HTU21D;54385;53.516;49.456;2022-11-09T13:48:46;4.83;76.03
67555;HTU21D;54385;53.516;49.456;2022-11-09T13:51:22;4.79;76.07
67555;HTU21D;54385;53.516;49.456;2022-11-09T13:54:00;4.76;76.17
67555;HTU21D;54385;53.516;49.456;2022-11-09T13:59:37;4.75;76.31
67555;HTU21D;54385;53.516;49.456;2022-11-09T14:02:22;4.79;76.15
67555;HTU21D;54385;53.516;49.456;2022-11-09T14:04:48;4.83;76.19
67555;HTU21D;54385;53.516;49.456;2022-11-09T14:07:28;4.86;75.78
67555;HTU21D;54385;53.516;49.456;2022-11-09T14:16:03;4.75;76.57
67555;HTU21D;54385;53.516;49.456;2022-11-09T14:18:55;4.80;76.54
67555;HTU21D;54385;53.516;49.456;2022-11-09T14:24:17;4.81;76.58
67555;HTU21D;54385;53.516;49.456;2022-11-09T14:26:57;4.88;76.26
67555;HTU21D;54385;53.516;49.456;2022-11-09T14:29:24;4.88;76.48
67555;HTU21D;54385;53.516;49.456;2022-11-09T14:31:51;4.87;76.29
67555;HTU21D;54385;53.516;49.456;2022-11-09T14:34:17;4.84;76.70
67555;HTU21D;54385;53.516;49.456;2022-11-09T14:36:45;4.82;76.65
67555;HTU21D;54385;53.516;49.456;2022-11-09T14:39:31;4.89;76.50
67555;HTU21D;54385;53.516;49.456;2022-11-09T14:41:59;4.89;76.47
67555;HTU21D;54385;53.516;49.456;2022-11-09T14:44:34;4.88;76.49
67555;HTU21D;54385;53.516;49.456;2022-11-09T14:47:13;4.89;76.49
67555;HTU21D;54385;53.516;49.456;2022-11-09T14:49:40;4.87;76.37
67555;HTU21D;54385;53.516;49.456;2022-11-09T14:52:11;4.88;76.47
67555;HTU21D;54385;53.516;49.456;2022-11-09T14:54:39;4.89;76.56
67555;HTU21D;54385;53.516;49.456;2022-11-09T14:57:08;4.88;76.60
67555;HTU21D;54385;53.516;49.456;2022-11-09T14:59:35;4.87;76.67
67555;HTU21D;54385;53.516;49.456;2022-11-09T15:02:07;4.86;76.50
67555;HTU21D;54385;53.516;49.456;2022-11-09T15:04:57;4.80;76.99
67555;HTU21D;54385;53.516;49.456;2022-11-09T15:07:32;4.76;76.97
67555;HTU21D;54385;53.516;49.456;2022-11-09T15:10:10;4.72;77.12
67555;HTU21D;54385;53.516;49.456;2022-11-09T15:12:51;4.75;77.11
67555;HTU21D;54385;53.516;49.456;2022-11-09T15:15:21;4.80;76.99
67555;HTU21D;54385;53.516;49.456;2022-11-09T15:17:49;4.78;77.02
67555;HTU21D;54385;53.516;49.456;2022-11-09T15:23:19;4.76;77.30
67555;HTU21D;54385;53.516;49.456;2022-11-09T15:31:03;4.79;77.18
67555;HTU21D;54385;53.516;49.456;2022-11-09T15:38:59;4.82;77.30
67555;HTU21D;54385;53.516;49.456;2022-11-09T15:41:26;4.88;77.11
67555;HTU21D;54385;53.516;49.456;2022-11-09T15:43:53;4.92;76.95
67555;HTU21D;54385;53.516;49.456;2022-11-09T15:46:27;4.88;76.89
67555;HTU21D;54385;53.516;49.456;2022-11-09T15:49:14;4.92;76.82
67555;HTU21D;54385;53.516;49.456;2022-11-09T15:51:42;4.94;76.90
67555;HTU21D;54385;53.516;49.456;2022-11-09T15:54:08;5.06;76.66
67555;HTU21D;54385;53.516;49.456;2022-11-09T15:56:34;5.13;76.50
67555;HTU21D;54385;53.516;49.456;2022-11-09T15:59:01;5.24;75.91
67555;HTU21D;54385;53.516;49.456;2022-11-09T16:01:29;5.28;75.44
67555;HTU21D;54385;53.516;49.456;2022-11-09T16:03:58;5.37;75.42
67555;HTU21D;54385;53.516;49.456;2022-11-09T16:06:25;5.30;75.86
67555;HTU21D;54385;53.516;49.456;2022-11-09T16:08:52;5.20;75.90
67555;HTU21D;54385;53.516;49.456;2022-11-09T16:11:18;5.21;76.05
67555;HTU21D;54385;53.516;49.456;2022-11-09T16:13:45;5.18;76.37
67555;HTU21D;54385;53.516;49.456;2022-11-09T16:16:12;5.16;76.36
67555;HTU21D;54385;53.516;49.456;2022-11-09T16:18:39;5.11;76.58
67555;HTU21D;54385;53.516;49.456;2022-11-09T16:21:14;5.08;76.41
67555;HTU21D;54385;53.516;49.456;2022-11-09T16:23:41;5.06;76.56
67555;HTU21D;54385;53.516;49.456;2022-11-09T16:26:12;5.07;76.80
67555;HTU21D;54385;53.516;49.456;2022-11-09T16:28:39;5.06;76.90
67555;HTU21D;54385;53.516;49.456;2022-11-09T16:31:06;5.06;77.17
67555;HTU21D;54385;53.516;49.456;2022-11-09T16:33:33;5.02;77.06
67555;HTU21D;54385;53.516;49.456;2022-11-09T16:36:03;5.05;77.14
67555;HTU21D;54385;53.516;49.456;2022-11-09T16:38:34;5.07;77.32
67555;HTU21D;54385;53.516;49.456;2022-11-09T16:41:02;5.05;77.20
67555;HTU21D;54385;53.516;49.456;2022-11-09T16:43:30;5.10;77.17
67555;HTU21D;54385;53.516;49.456;2022-11-09T16:45:57;5.17;77.00
67555;HTU21D;54385;53.516;49.456;2022-11-09T16:48:24;5.27;76.53
67555;HTU21D;54385;53.516;49.456;2022-11-09T16:50:50;5.26;76.35
67555;HTU21D;54385;53.516;49.456;2022-11-09T16:53:19;5.21;76.76
67555;HTU21D;54385;53.516;49.456;2022-11-09T16:55:46;5.18;76.75